»·PEaware :: SKW9030 KFAT-KLAX

SKW9030 :: KFAT-KLAX

FLIGHT INFORMATION

Flight Status: Arrived
Operator:
SkyWest Airlines
More flights by this operator :: More flights under this callsign
Pilot: Skye D. (10623)
Aircraft: CANADAIR CL-600 CRJ-200
(CRJ2)
More flights by this aircraft type
Origin: KFAT Fresno Yosemite Intl
United States
Destination: KLAX Los Angeles Intl
United States
More flights between these airports :: More routes between these airports
Route: CZQ FRAME PONDD TAFTO MUPTT IRNMN1
File this flight plan on PilotEdge
Remarks:
Altitude:
(Current/Filed)
23,000ft
Speed:
(Current/Filed)
382kts
Departed: 20-Jan-18 02:10 PM
Arrived: 20-Jan-18 02:56 PM
Distance/Time
Traveled:
182nm/0:45
Distance/Time
To Go:
Arrived

Flight Plot

Page will automatically refresh every two minutes.

Flight plan parsing failed; only flown route is shown


Map Options




Map Legend


Flown Route
Filed Route
Departure Airport
Arrival Airport
Navaid (VOR, NDB)
Fix

Horizontal Profiles

Position Reports

Time Latitude Longitude Heading Altitude Ground
Speed
20-Jan-18 13:52 36.771069 -119.718089 295 340ft 0kts
20-Jan-18 13:53 36.771069 -119.718089 295 340ft 0kts
20-Jan-18 13:54 36.771069 -119.718089 295 340ft 0kts
20-Jan-18 13:55 36.771069 -119.718089 295 340ft 0kts
20-Jan-18 13:56 36.771069 -119.718089 295 340ft 0kts
20-Jan-18 13:57 36.771069 -119.718089 295 340ft 0kts
20-Jan-18 13:58 36.771069 -119.718089 295 340ft 0kts
20-Jan-18 13:59 36.771069 -119.718089 295 340ft 0kts
20-Jan-18 14:00 36.771069 -119.718089 295 340ft 0kts
20-Jan-18 14:01 36.771069 -119.718089 295 340ft 0kts
20-Jan-18 14:02 36.771069 -119.718089 295 340ft 0kts
20-Jan-18 14:03 36.771069 -119.718089 295 340ft 0kts
20-Jan-18 14:04 36.771071 -119.718094 295 340ft 0kts
20-Jan-18 14:05 36.770840 -119.717623 332 340ft 2kts
20-Jan-18 14:06 36.770564 -119.717659 34 340ft 0kts
20-Jan-18 14:07 36.770564 -119.717659 34 340ft 0kts
20-Jan-18 14:08 36.770655 -119.717578 35 340ft 3kts
20-Jan-18 14:09 36.771448 -119.716769 36 340ft 0kts
20-Jan-18 14:10 36.771386 -119.714493 126 340ft 20kts
20-Jan-18 14:11 36.769223 -119.710762 131 340ft 1kts
20-Jan-18 14:12 36.767673 -119.708010 118 340ft 5kts
20-Jan-18 14:13 36.767642 -119.706047 88 340ft 2kts
20-Jan-18 14:14 36.768099 -119.704362 33 340ft 0kts
20-Jan-18 14:15 36.768182 -119.704291 33 340ft 4kts
20-Jan-18 14:16 36.770527 -119.706492 305 340ft 75kts
20-Jan-18 14:17 36.794063 -119.747494 302 2012ft 192kts
20-Jan-18 14:18 36.821738 -119.804819 286 5383ft 211kts
20-Jan-18 14:19 36.788135 -119.853691 183 7542ft 275kts
20-Jan-18 14:20 36.727973 -119.820967 134 10087ft 295kts
20-Jan-18 14:21 36.667462 -119.744737 132 11332ft 361kts
20-Jan-18 14:22 36.591985 -119.662395 158 13145ft 391kts
20-Jan-18 14:23 36.491705 -119.611026 157 15109ft 408kts
20-Jan-18 14:24 36.385302 -119.556064 157 16880ft 423kts
20-Jan-18 14:25 36.275188 -119.499347 157 18451ft 438kts
20-Jan-18 14:26 36.160486 -119.440456 157 19712ft 455kts
20-Jan-18 14:27 36.042759 -119.380197 157 20915ft 470kts
20-Jan-18 14:28 35.935390 -119.325076 157 21889ft 481kts
20-Jan-18 14:29 35.845201 -119.278373 155 22828ft 493kts
20-Jan-18 14:30 35.714084 -119.276646 190 23209ft 499kts
20-Jan-18 14:31 35.595579 -119.287863 188 23208ft 510kts
20-Jan-18 14:32 35.462153 -119.299299 188 23210ft 518kts
20-Jan-18 14:33 35.352733 -119.308638 188 23211ft 523kts
20-Jan-18 14:34 35.230525 -119.319022 188 23216ft 526kts
20-Jan-18 14:35 35.109632 -119.325561 184 23210ft 512kts
20-Jan-18 14:36 34.985558 -119.326485 185 23210ft 474kts
20-Jan-18 14:37 34.866951 -119.327399 185 23122ft 478kts
20-Jan-18 14:38 34.762927 -119.324061 171 22989ft 457kts
20-Jan-18 14:39 34.671019 -119.259255 143 21805ft 447kts
20-Jan-18 14:40 34.576363 -119.177478 144 20189ft 427kts
20-Jan-18 14:41 34.483475 -119.095556 143 18251ft 406kts
20-Jan-18 14:42 34.393755 -119.017163 143 16299ft 390kts
20-Jan-18 14:43 34.308101 -118.941527 142 14451ft 375kts
20-Jan-18 14:44 34.226600 -118.867270 142 12603ft 365kts
20-Jan-18 14:45 34.156635 -118.801383 136 10961ft 290kts
20-Jan-18 14:46 34.095510 -118.735266 136 9503ft 297kts
20-Jan-18 14:47 34.037137 -118.668790 117 8985ft 284kts
20-Jan-18 14:48 34.022604 -118.584027 92 8032ft 274kts
20-Jan-18 14:49 34.014354 -118.502164 91 7999ft 269kts
20-Jan-18 14:50 34.015243 -118.430137 73 6742ft 237kts
20-Jan-18 14:51 34.026427 -118.361873 75 6005ft 232kts
20-Jan-18 14:52 34.033222 -118.298708 78 5983ft 233kts
20-Jan-18 14:53 34.040621 -118.229782 78 5983ft 232kts
20-Jan-18 14:54 34.033878 -118.167575 138 5679ft 236kts
20-Jan-18 14:55 33.974111 -118.149239 171 4038ft 230kts
20-Jan-18 14:56 33.929899 -118.160405 266 2987ft 163kts
20-Jan-18 14:57 33.936418 -118.205186 285 2460ft 151kts
20-Jan-18 14:58 33.945352 -118.248255 286 1829ft 153kts
20-Jan-18 14:59 33.945921 -118.293157 268 1614ft 150kts
20-Jan-18 15:00 33.941796 -118.339142 263 897ft 130kts
20-Jan-18 15:01 33.937902 -118.377616 263 267ft 127kts
20-Jan-18 15:02 33.936046 -118.403106 292 130ft 7kts
20-Jan-18 15:03 33.936090 -118.403235 292 130ft 0kts
20-Jan-18 15:04 33.936469 -118.402410 83 130ft 18kts
20-Jan-18 15:05 33.937074 -118.396095 82 130ft 19kts
20-Jan-18 15:06 33.938973 -118.393757 355 130ft 10kts
20-Jan-18 15:07 33.939431 -118.393976 279 130ft 5kts
20-Jan-18 15:08 33.940189 -118.394119 77 130ft 6kts
20-Jan-18 15:09 33.941153 -118.393220 1 130ft 5kts
20-Jan-18 15:10 33.941522 -118.393597 272 130ft 0kts
20-Jan-18 15:11 33.941522 -118.393597 272 130ft 0kts

Navigation Log

Ident Type
Flight plan parsing failed, navigation log unavailable